Time;durP1;ratioP1;P1;durP2;ratioP2;P2;SDS_P1;SDS_P2;PMS_P1;PMS_P2;Temp;Humidity;BMP_temperature;BMP_pressure;BME280_temperature;BME280_humidity;BME280_pressure;Samples;Min_cycle;Max_cycle;Signal;HPM_P1;HPM_P2
2022/05/21 00:00:15;;;;;;;7.28;3.13;;;;;;;;;;5117440;27;20243;-15
2022/05/21 00:02:43;;;;;;;4.68;2.88;;;;;;;;;;5122604;27;20222;-15
2022/05/21 00:05:10;;;;;;;3.50;2.30;;;;;;;;;;5122038;27;20732;-15
2022/05/21 00:07:37;;;;;;;4.75;2.65;;;;;;;;;;5117174;27;20255;-15
2022/05/21 00:10:07;;;;;;;5.93;2.40;;;;;;;;;;5120378;27;20231;-15
2022/05/21 00:12:35;;;;;;;5.03;2.60;;;;;;;;;;5117294;27;20224;-15
2022/05/21 00:15:04;;;;;;;4.00;2.28;;;;;;;;;;5121001;27;21014;-15
2022/05/21 00:17:32;;;;;;;5.47;2.92;;;;;;;;;;5120144;27;20781;-15
2022/05/21 00:20:00;;;;;;;6.70;2.58;;;;;;;;;;5118688;27;20225;-15
2022/05/21 00:22:27;;;;;;;4.95;2.70;;;;;;;;;;5121992;27;20777;-15
2022/05/21 00:24:55;;;;;;;4.80;2.80;;;;;;;;;;5119533;27;20212;-15
2022/05/21 00:27:22;;;;;;;7.07;2.67;;;;;;;;;;5122111;27;20232;-15
2022/05/21 00:29:49;;;;;;;5.47;2.75;;;;;;;;;;5118669;27;20236;-15
2022/05/21 00:32:18;;;;;;;7.05;3.33;;;;;;;;;;5119524;27;21003;-15
2022/05/21 00:34:45;;;;;;;4.53;2.70;;;;;;;;;;5120784;27;20221;-15
2022/05/21 00:37:13;;;;;;;5.40;3.00;;;;;;;;;;5117626;27;20977;-15
2022/05/21 00:39:40;;;;;;;5.95;2.58;;;;;;;;;;5121465;27;20323;-15
2022/05/21 00:42:08;;;;;;;4.95;2.90;;;;;;;;;;5121050;27;20232;-15
2022/05/21 00:44:35;;;;;;;4.00;2.40;;;;;;;;;;5121487;27;20231;-15
2022/05/21 00:47:02;;;;;;;5.25;2.78;;;;;;;;;;5122791;27;21069;-15
2022/05/21 00:49:32;;;;;;;4.65;2.75;;;;;;;;;;5118056;27;20258;-15
2022/05/21 00:52:02;;;;;;;4.88;2.50;;;;;;;;;;5117153;27;20220;-15
2022/05/21 00:54:31;;;;;;;4.97;2.75;;;;;;;;;;5120963;27;20239;-15
2022/05/21 00:56:58;;;;;;;4.60;2.95;;;;;;;;;;5121997;27;20235;-15
2022/05/21 01:02:11;;;;;;;4.07;2.35;;;;;;;;;;5113885;27;20259;-15
2022/05/21 01:04:40;;;;;;;6.88;2.83;;;;;;;;;;5115027;27;21036;-15
2022/05/21 01:07:07;;;;;;;6.22;3.08;;;;;;;;;;5119209;27;20895;-15
2022/05/21 01:09:34;;;;;;;6.18;2.60;;;;;;;;;;5122165;27;20238;-15
2022/05/21 01:12:02;;;;;;;5.00;2.95;;;;;;;;;;5118613;27;20224;-15
2022/05/21 01:14:29;;;;;;;4.43;2.60;;;;;;;;;;5117690;27;20240;-15
2022/05/21 01:16:57;;;;;;;5.55;2.70;;;;;;;;;;5120233;27;20974;-15
2022/05/21 01:19:24;;;;;;;4.43;2.70;;;;;;;;;;5119079;27;21101;-15
2022/05/21 01:21:53;;;;;;;4.93;2.70;;;;;;;;;;5117637;27;21221;-16
2022/05/21 01:24:21;;;;;;;5.82;3.30;;;;;;;;;;5118944;27;20231;-15
2022/05/21 01:26:49;;;;;;;4.72;2.83;;;;;;;;;;5117127;27;20699;-15
2022/05/21 01:29:17;;;;;;;5.93;3.13;;;;;;;;;;5119583;27;20224;-15
2022/05/21 01:31:48;;;;;;;5.25;2.83;;;;;;;;;;5124285;27;20330;-15
2022/05/21 01:34:15;;;;;;;4.85;3.00;;;;;;;;;;5117180;27;20260;-15
2022/05/21 01:36:42;;;;;;;5.72;3.55;;;;;;;;;;5118002;27;20232;-15
2022/05/21 01:39:09;;;;;;;6.25;3.75;;;;;;;;;;5120760;27;20238;-15
2022/05/21 01:41:38;;;;;;;5.10;3.45;;;;;;;;;;5115941;27;20226;-15
2022/05/21 01:46:50;;;;;;;3.92;3.13;;;;;;;;;;5115309;27;20302;-15
2022/05/21 01:49:18;;;;;;;5.65;3.72;;;;;;;;;;5119901;27;20235;-15
2022/05/21 01:51:45;;;;;;;6.40;3.80;;;;;;;;;;5116876;27;20596;-15
2022/05/21 01:54:12;;;;;;;5.07;3.60;;;;;;;;;;5119720;27;20247;-15
2022/05/21 01:56:41;;;;;;;5.68;3.50;;;;;;;;;;5116489;27;20224;-15
2022/05/21 01:59:09;;;;;;;4.72;3.45;;;;;;;;;;5118864;27;20728;-15
2022/05/21 02:01:36;;;;;;;6.22;3.30;;;;;;;;;;5120195;27;20220;-15
2022/05/21 02:04:03;;;;;;;5.75;4.00;;;;;;;;;;5119088;27;20287;-15
2022/05/21 02:06:32;;;;;;;5.43;3.35;;;;;;;;;;5116959;27;20243;-15
2022/05/21 02:09:00;;;;;;;4.90;4.40;;;;;;;;;;5118473;27;20702;-15
2022/05/21 02:11:27;;;;;;;5.47;3.85;;;;;;;;;;5120020;27;20959;-15
2022/05/21 02:13:56;;;;;;;7.97;4.75;;;;;;;;;;5121971;27;20281;-15
2022/05/21 02:16:23;;;;;;;8.82;4.10;;;;;;;;;;5112802;27;20224;-15
2022/05/21 02:18:51;;;;;;;6.07;4.32;;;;;;;;;;5116619;27;20232;-15
2022/05/21 02:21:18;;;;;;;5.03;4.00;;;;;;;;;;5130457;22;20237;-19
2022/05/21 02:23:45;;;;;;;7.35;4.43;;;;;;;;;;5097486;28;20233;-19
2022/05/21 02:26:15;;;;;;;6.85;5.20;;;;;;;;;;5101939;28;20706;-19
2022/05/21 02:28:42;;;;;;;7.15;5.00;;;;;;;;;;5099569;28;20216;-20
2022/05/21 02:31:11;;;;;;;12.00;5.00;;;;;;;;;;5093645;28;20217;-18
2022/05/21 02:33:38;;;;;;;6.40;4.60;;;;;;;;;;5094419;28;20239;-20
2022/05/21 02:36:06;;;;;;;6.50;4.10;;;;;;;;;;5095332;28;20308;-19
2022/05/21 02:41:26;;;;;;;7.00;4.40;;;;;;;;;;5065623;28;20228;-20
2022/05/21 02:43:54;;;;;;;5.32;4.13;;;;;;;;;;5099517;28;20255;-19
2022/05/21 02:46:22;;;;;;;3.97;3.53;;;;;;;;;;5091945;28;20221;-19
2022/05/21 02:48:50;;;;;;;5.28;4.00;;;;;;;;;;5096126;28;20697;-20
2022/05/21 02:51:17;;;;;;;7.75;4.28;;;;;;;;;;5097009;28;20233;-19
2022/05/21 02:53:44;;;;;;;7.15;3.92;;;;;;;;;;5098207;28;21079;-19
2022/05/21 02:56:14;;;;;;;6.03;3.90;;;;;;;;;;5098698;28;20283;-20
2022/05/21 02:58:41;;;;;;;7.85;4.80;;;;;;;;;;5098229;28;20269;-20
2022/05/21 03:01:08;;;;;;;9.80;4.97;;;;;;;;;;5094755;28;20217;-19
2022/05/21 03:03:37;;;;;;;8.93;4.50;;;;;;;;;;5098028;28;20231;-19
2022/05/21 03:06:04;;;;;;;6.45;4.28;;;;;;;;;;5097686;28;20671;-19
2022/05/21 03:11:16;;;;;;;6.53;4.65;;;;;;;;;;5095877;28;20226;-19
2022/05/21 03:13:44;;;;;;;8.45;4.28;;;;;;;;;;5098806;28;20239;-20
2022/05/21 03:16:11;;;;;;;8.98;4.88;;;;;;;;;;5096303;28;20228;-20
2022/05/21 03:18:40;;;;;;;7.00;4.72;;;;;;;;;;5094477;28;20692;-20
2022/05/21 03:21:07;;;;;;;6.70;3.97;;;;;;;;;;5094268;28;20236;-20
2022/05/21 03:23:35;;;;;;;7.10;4.72;;;;;;;;;;5094314;28;20236;-19
2022/05/21 03:26:02;;;;;;;8.65;4.97;;;;;;;;;;5098482;28;20217;-19
2022/05/21 03:28:29;;;;;;;6.90;4.45;;;;;;;;;;5095898;28;21036;-19
2022/05/21 03:30:57;;;;;;;8.55;4.63;;;;;;;;;;5097449;28;20321;-19
2022/05/21 03:33:24;;;;;;;7.03;4.53;;;;;;;;;;5099503;28;20236;-19
2022/05/21 03:35:53;;;;;;;7.75;4.20;;;;;;;;;;5099694;28;20236;-20
2022/05/21 03:38:20;;;;;;;7.70;4.65;;;;;;;;;;5100390;28;20229;-19
2022/05/21 03:40:48;;;;;;;8.95;5.30;;;;;;;;;;5097623;28;20239;-19
2022/05/21 03:43:15;;;;;;;7.10;4.45;;;;;;;;;;5100633;28;20229;-20
2022/05/21 03:45:43;;;;;;;7.03;4.22;;;;;;;;;;5097690;28;20224;-19
2022/05/21 03:48:10;;;;;;;5.60;4.47;;;;;;;;;;5100913;28;20221;-19
2022/05/21 03:50:38;;;;;;;7.40;4.72;;;;;;;;;;5097472;28;20238;-19
2022/05/21 03:53:09;;;;;;;9.95;4.90;;;;;;;;;;5097802;28;20221;-19
2022/05/21 03:55:37;;;;;;;7.63;4.50;;;;;;;;;;5100696;28;20232;-19
2022/05/21 03:58:04;;;;;;;8.02;4.15;;;;;;;;;;5097534;28;20229;-19
2022/05/21 04:00:32;;;;;;;7.55;4.10;;;;;;;;;;5102601;28;20232;-20
2022/05/21 04:03:01;;;;;;;8.50;4.85;;;;;;;;;;5098524;28;20714;-19
2022/05/21 04:05:28;;;;;;;6.90;3.70;;;;;;;;;;5096882;28;20727;-19
2022/05/21 04:07:55;;;;;;;8.35;3.88;;;;;;;;;;5099305;28;20217;-20
2022/05/21 04:10:24;;;;;;;5.85;3.65;;;;;;;;;;5099331;28;20228;-19
2022/05/21 04:12:51;;;;;;;7.35;3.88;;;;;;;;;;5099493;28;20598;-19
2022/05/21 04:15:19;;;;;;;8.35;3.97;;;;;;;;;;5101135;28;20243;-19
2022/05/21 04:17:46;;;;;;;8.38;4.10;;;;;;;;;;5097427;28;20232;-19
2022/05/21 04:20:15;;;;;;;8.75;4.03;;;;;;;;;;5104656;28;20246;-19
2022/05/21 04:22:42;;;;;;;8.27;3.65;;;;;;;;;;5099175;28;20722;-19
2022/05/21 04:25:10;;;;;;;8.35;3.70;;;;;;;;;;5100911;28;20229;-20
2022/05/21 04:27:39;;;;;;;6.10;3.80;;;;;;;;;;5096988;28;20719;-19
2022/05/21 04:30:07;;;;;;;9.25;4.32;;;;;;;;;;5098972;28;20231;-20
2022/05/21 04:32:34;;;;;;;7.53;4.13;;;;;;;;;;5099757;28;20232;-18
2022/05/21 04:35:03;;;;;;;6.93;3.67;;;;;;;;;;5100283;28;20326;-20
2022/05/21 04:37:30;;;;;;;8.27;4.10;;;;;;;;;;5102152;28;20209;-18
2022/05/21 04:39:57;;;;;;;10.52;4.30;;;;;;;;;;5100070;28;20248;-18
2022/05/21 04:42:25;;;;;;;9.23;4.10;;;;;;;;;;5100944;28;20232;-18
2022/05/21 04:44:53;;;;;;;6.82;4.20;;;;;;;;;;5100740;28;20240;-18
2022/05/21 04:47:21;;;;;;;8.13;4.40;;;;;;;;;;5097542;28;20236;-18
2022/05/21 04:49:48;;;;;;;9.90;4.70;;;;;;;;;;5097396;28;20236;-17
2022/05/21 04:52:16;;;;;;;9.75;4.47;;;;;;;;;;5099687;28;20215;-17
2022/05/21 04:54:43;;;;;;;7.05;3.92;;;;;;;;;;5099371;28;20288;-18
2022/05/21 04:57:10;;;;;;;7.40;4.00;;;;;;;;;;5097233;28;20225;-18
2022/05/21 04:59:37;;;;;;;10.18;4.70;;;;;;;;;;5096669;28;20237;-18
2022/05/21 05:02:06;;;;;;;11.70;3.90;;;;;;;;;;5095301;28;20239;-17
2022/05/21 05:04:34;;;;;;;9.27;4.22;;;;;;;;;;5096744;28;20236;-18
2022/05/21 05:07:06;;;;;;;9.38;4.72;;;;;;;;;;5095463;28;20276;-18
2022/05/21 05:09:38;;;;;;;8.90;3.92;;;;;;;;;;5100117;28;20240;-18
2022/05/21 05:12:06;;;;;;;10.13;3.97;;;;;;;;;;5100425;28;20236;-17
2022/05/21 05:14:33;;;;;;;9.25;4.38;;;;;;;;;;5100734;28;20652;-18
2022/05/21 05:17:00;;;;;;;10.02;3.67;;;;;;;;;;5102664;28;20248;-17
2022/05/21 05:19:30;;;;;;;11.18;4.13;;;;;;;;;;5100168;28;21067;-18
2022/05/21 05:21:57;;;;;;;9.80;3.80;;;;;;;;;;5099733;28;20645;-18
2022/05/21 05:24:25;;;;;;;8.25;3.22;;;;;;;;;;5097852;28;20264;-18
2022/05/21 05:26:52;;;;;;;7.22;3.38;;;;;;;;;;5098317;28;20233;-19
2022/05/21 05:29:20;;;;;;;10.20;3.47;;;;;;;;;;5100745;28;20626;-18
2022/05/21 05:31:47;;;;;;;11.32;3.75;;;;;;;;;;5099008;28;20221;-18
2022/05/21 05:34:14;;;;;;;10.55;3.72;;;;;;;;;;5103658;28;20368;-19
2022/05/21 05:36:43;;;;;;;9.48;3.53;;;;;;;;;;5099984;28;20240;-18
2022/05/21 05:39:10;;;;;;;9.57;3.38;;;;;;;;;;5099827;28;20309;-18
2022/05/21 05:41:38;;;;;;;11.27;3.75;;;;;;;;;;5099334;28;20228;-18
2022/05/21 05:44:06;;;;;;;9.52;3.33;;;;;;;;;;5095095;28;20236;-18
2022/05/21 05:46:33;;;;;;;12.15;4.00;;;;;;;;;;5097318;28;20243;-18
2022/05/21 05:49:01;;;;;;;10.32;3.45;;;;;;;;;;5095752;28;20217;-18
2022/05/21 05:51:28;;;;;;;6.18;2.75;;;;;;;;;;5099084;28;20679;-18
2022/05/21 05:53:57;;;;;;;10.05;3.70;;;;;;;;;;5097368;28;20244;-18
2022/05/21 05:56:24;;;;;;;10.73;3.55;;;;;;;;;;5097234;28;20240;-17
2022/05/21 06:01:36;;;;;;;13.88;3.65;;;;;;;;;;5094649;28;20244;-17
2022/05/21 06:04:04;;;;;;;9.90;3.67;;;;;;;;;;5098566;28;20335;-20
2022/05/21 06:06:31;;;;;;;10.32;3.47;;;;;;;;;;5096757;28;20262;-20
2022/05/21 06:09:00;;;;;;;14.88;4.57;;;;;;;;;;5101273;28;20235;-19
2022/05/21 06:11:28;;;;;;;9.45;3.75;;;;;;;;;;5098470;28;20231;-20
2022/05/21 06:13:55;;;;;;;8.85;3.50;;;;;;;;;;5097031;28;20262;-18
2022/05/21 06:16:22;;;;;;;12.55;3.25;;;;;;;;;;5099541;28;20220;-19
2022/05/21 06:18:50;;;;;;;11.48;3.63;;;;;;;;;;5096171;28;20232;-17
2022/05/21 06:21:17;;;;;;;7.43;3.08;;;;;;;;;;5102124;28;20354;-20
2022/05/21 06:23:45;;;;;;;7.70;3.03;;;;;;;;;;5098615;28;20239;-19
2022/05/21 06:26:14;;;;;;;9.40;2.97;;;;;;;;;;5095253;28;20749;-19
2022/05/21 06:28:41;;;;;;;11.18;3.42;;;;;;;;;;5098838;28;20224;-19
2022/05/21 06:31:09;;;;;;;8.85;2.95;;;;;;;;;;5102314;28;20212;-19
2022/05/21 06:33:36;;;;;;;11.77;3.22;;;;;;;;;;5100495;28;20232;-19
2022/05/21 06:36:05;;;;;;;11.25;3.22;;;;;;;;;;5095495;28;20236;-19
2022/05/21 06:38:34;;;;;;;10.52;3.65;;;;;;;;;;5097542;28;20756;-19
2022/05/21 06:41:01;;;;;;;8.27;2.88;;;;;;;;;;5095772;28;20989;-19
2022/05/21 06:43:30;;;;;;;8.98;3.20;;;;;;;;;;5094493;28;20228;-19
2022/05/21 06:45:57;;;;;;;10.25;3.47;;;;;;;;;;5097824;28;20224;-19
2022/05/21 06:48:25;;;;;;;8.32;2.88;;;;;;;;;;5096517;28;20224;-20
2022/05/21 06:50:52;;;;;;;8.52;2.60;;;;;;;;;;5096895;28;20688;-19
2022/05/21 06:53:19;;;;;;;8.75;2.70;;;;;;;;;;5095790;28;20244;-19
2022/05/21 06:55:47;;;;;;;7.55;2.42;;;;;;;;;;5099889;28;20232;-20
2022/05/21 06:58:14;;;;;;;7.97;3.00;;;;;;;;;;5097858;28;20227;-20
2022/05/21 07:00:43;;;;;;;9.25;2.67;;;;;;;;;;5093728;28;21289;-19
2022/05/21 07:03:10;;;;;;;11.70;2.45;;;;;;;;;;5096918;27;20216;-19
2022/05/21 07:08:24;;;;;;;9.85;2.50;;;;;;;;;;5097696;28;20232;-18
2022/05/21 07:10:52;;;;;;;13.13;2.80;;;;;;;;;;5100490;28;20240;-17
2022/05/21 07:13:19;;;;;;;10.18;3.15;;;;;;;;;;5098196;28;20229;-17
2022/05/21 07:15:49;;;;;;;10.63;3.17;;;;;;;;;;5101211;28;20216;-20
2022/05/21 07:18:16;;;;;;;8.80;2.33;;;;;;;;;;5104824;28;20319;-18
2022/05/21 07:20:44;;;;;;;11.57;2.88;;;;;;;;;;5097943;28;20243;-17
2022/05/21 07:23:11;;;;;;;9.43;2.38;;;;;;;;;;5104727;28;20228;-18
2022/05/21 07:25:39;;;;;;;8.68;2.40;;;;;;;;;;5102001;28;20652;-18
2022/05/21 07:28:07;;;;;;;10.57;2.50;;;;;;;;;;5101329;28;20243;-20
2022/05/21 07:30:35;;;;;;;9.02;2.85;;;;;;;;;;5104309;28;20228;-19
2022/05/21 07:33:03;;;;;;;7.70;2.22;;;;;;;;;;5098614;28;20223;-19
2022/05/21 07:35:31;;;;;;;8.88;2.72;;;;;;;;;;5100162;28;20232;-20
2022/05/21 07:37:58;;;;;;;9.63;2.92;;;;;;;;;;5098680;28;20624;-19
2022/05/21 07:40:25;;;;;;;8.80;2.80;;;;;;;;;;5097184;28;20241;-17
2022/05/21 07:42:53;;;;;;;8.93;2.58;;;;;;;;;;5099346;28;20225;-19
2022/05/21 07:45:20;;;;;;;10.35;2.60;;;;;;;;;;5100241;28;20215;-20
2022/05/21 07:47:49;;;;;;;7.57;2.33;;;;;;;;;;5099807;28;20232;-20
2022/05/21 07:50:17;;;;;;;8.63;2.30;;;;;;;;;;5097371;28;20217;-19
2022/05/21 07:52:46;;;;;;;9.90;2.60;;;;;;;;;;5101835;28;20263;-18
2022/05/21 07:55:14;;;;;;;8.88;2.60;;;;;;;;;;5101758;28;20216;-19
2022/05/21 07:57:41;;;;;;;10.60;2.40;;;;;;;;;;5101571;28;20706;-19
2022/05/21 08:00:10;;;;;;;7.88;2.53;;;;;;;;;;5104446;28;20220;-19
2022/05/21 08:02:40;;;;;;;8.10;2.70;;;;;;;;;;5095883;28;20229;-19
2022/05/21 08:05:07;;;;;;;9.25;2.20;;;;;;;;;;5101627;28;20955;-18
2022/05/21 08:07:36;;;;;;;8.63;2.78;;;;;;;;;;5100656;28;20235;-18
2022/05/21 08:10:04;;;;;;;8.75;2.78;;;;;;;;;;5097707;28;20236;-19
2022/05/21 08:12:31;;;;;;;8.65;2.58;;;;;;;;;;5098991;28;20225;-19
2022/05/21 08:14:59;;;;;;;10.10;2.45;;;;;;;;;;5101533;28;20231;-19
2022/05/21 08:17:26;;;;;;;8.23;2.08;;;;;;;;;;5095920;28;20977;-19
2022/05/21 08:19:53;;;;;;;6.50;2.15;;;;;;;;;;5098607;28;20236;-20
2022/05/21 08:27:57;;;;;;;9.95;1.95;;;;;;;;;;5098301;28;20239;-20
2022/05/21 08:30:25;;;;;;;7.57;1.92;;;;;;;;;;5095889;28;20229;-20
2022/05/21 08:32:58;;;;;;;11.02;2.40;;;;;;;;;;5101208;28;20339;-19
2022/05/21 08:35:25;;;;;;;9.65;2.40;;;;;;;;;;5100950;28;20682;-19
2022/05/21 08:37:53;;;;;;;8.18;2.55;;;;;;;;;;5097596;28;20237;-20
2022/05/21 08:40:22;;;;;;;8.98;2.30;;;;;;;;;;5098957;28;20244;-19
2022/05/21 08:42:51;;;;;;;10.75;2.30;;;;;;;;;;5097754;28;20251;-19
2022/05/21 08:45:20;;;;;;;9.88;2.45;;;;;;;;;;5099161;28;20228;-20
2022/05/21 08:47:49;;;;;;;6.85;2.20;;;;;;;;;;5103682;28;20236;-19
2022/05/21 08:50:17;;;;;;;9.05;2.22;;;;;;;;;;5097161;28;20229;-19
2022/05/21 08:52:45;;;;;;;5.70;2.17;;;;;;;;;;5099471;28;20676;-19
2022/05/21 08:55:15;;;;;;;12.73;2.47;;;;;;;;;;5096224;28;20699;-19
2022/05/21 08:57:44;;;;;;;8.50;2.10;;;;;;;;;;5099481;28;20244;-20
2022/05/21 09:00:12;;;;;;;7.32;1.95;;;;;;;;;;5098791;28;20232;-19
2022/05/21 09:02:40;;;;;;;6.75;2.00;;;;;;;;;;5096202;28;20238;-20
2022/05/21 09:05:08;;;;;;;7.68;2.03;;;;;;;;;;5096720;28;20225;-20
2022/05/21 09:07:39;;;;;;;9.40;2.25;;;;;;;;;;5095742;28;20233;-19
2022/05/21 09:10:08;;;;;;;10.82;2.47;;;;;;;;;;5100514;28;20225;-19
2022/05/21 09:12:39;;;;;;;7.95;2.15;;;;;;;;;;5100645;28;20640;-19
2022/05/21 09:15:08;;;;;;;8.00;2.05;;;;;;;;;;5100291;28;20240;-20
2022/05/21 09:17:34;;;;;;;8.40;1.88;;;;;;;;;;5100137;28;20241;-20
2022/05/21 09:20:03;;;;;;;6.63;2.05;;;;;;;;;;5099486;28;20237;-19
2022/05/21 09:22:31;;;;;;;6.30;1.83;;;;;;;;;;5098369;28;20720;-19
2022/05/21 09:25:17;;;;;;;7.95;1.90;;;;;;;;;;5096842;27;20235;-18
2022/05/21 09:27:46;;;;;;;5.95;1.38;;;;;;;;;;5099701;28;20251;-20
2022/05/21 09:30:17;;;;;;;7.00;1.58;;;;;;;;;;5099824;28;20224;-20
2022/05/21 09:32:46;;;;;;;7.00;1.88;;;;;;;;;;5103454;28;20227;-19
2022/05/21 09:35:15;;;;;;;4.40;1.60;;;;;;;;;;5095985;28;20229;-19
2022/05/21 09:37:42;;;;;;;5.43;1.83;;;;;;;;;;5103612;28;21042;-20
2022/05/21 09:40:26;;;;;;;11.90;2.05;;;;;;;;;;5095118;28;20228;-19
2022/05/21 09:45:41;;;;;;;7.60;1.70;;;;;;;;;;5098577;28;20343;-20
2022/05/21 09:48:18;;;;;;;4.35;1.67;;;;;;;;;;5095538;28;20233;-18
2022/05/21 09:50:47;;;;;;;8.27;2.05;;;;;;;;;;5097005;28;20227;-18
2022/05/21 09:53:27;;;;;;;5.35;1.63;;;;;;;;;;5098610;28;20230;-20
2022/05/21 09:55:58;;;;;;;6.47;1.65;;;;;;;;;;5097203;28;20229;-18
2022/05/21 09:58:26;;;;;;;7.03;1.77;;;;;;;;;;5097245;28;20323;-19
2022/05/21 10:00:54;;;;;;;7.07;1.85;;;;;;;;;;5101932;28;20612;-17
2022/05/21 10:03:35;;;;;;;6.75;1.95;;;;;;;;;;5095870;28;20228;-20
2022/05/21 10:06:02;;;;;;;6.68;1.90;;;;;;;;;;5100231;28;20220;-19
2022/05/21 10:11:16;;;;;;;8.30;1.90;;;;;;;;;;5096665;28;20228;-18
2022/05/21 10:13:44;;;;;;;6.20;1.80;;;;;;;;;;5098745;28;20235;-19
2022/05/21 10:16:18;;;;;;;5.20;2.00;;;;;;;;;;5098224;28;20233;-19
2022/05/21 10:18:46;;;;;;;8.13;1.95;;;;;;;;;;5095699;28;20238;-19
2022/05/21 10:21:17;;;;;;;8.57;2.20;;;;;;;;;;5098889;28;20601;-19
2022/05/21 10:23:45;;;;;;;7.90;1.77;;;;;;;;;;5099201;28;20240;-19
2022/05/21 10:26:24;;;;;;;9.55;1.95;;;;;;;;;;5094704;28;20228;-19
2022/05/21 10:28:55;;;;;;;4.97;1.77;;;;;;;;;;5097451;28;20231;-18
2022/05/21 10:31:29;;;;;;;10.82;2.00;;;;;;;;;;5097603;28;20223;-19
2022/05/21 10:34:03;;;;;;;6.90;1.65;;;;;;;;;;5097268;28;20671;-19
2022/05/21 10:36:32;;;;;;;7.28;2.33;;;;;;;;;;5094884;28;20332;-19
2022/05/21 10:39:08;;;;;;;6.72;2.28;;;;;;;;;;5094159;28;20706;-19
2022/05/21 10:41:39;;;;;;;9.07;1.85;;;;;;;;;;5099129;28;20220;-19
2022/05/21 10:44:10;;;;;;;9.32;2.10;;;;;;;;;;5098663;28;20235;-20
2022/05/21 10:46:41;;;;;;;7.03;2.17;;;;;;;;;;5096457;28;20231;-19
2022/05/21 10:49:13;;;;;;;5.50;1.60;;;;;;;;;;5095178;28;20240;-20
2022/05/21 10:51:42;;;;;;;5.18;1.42;;;;;;;;;;5095196;28;20228;-19
2022/05/21 10:54:27;;;;;;;5.95;1.73;;;;;;;;;;5091158;28;20225;-19
2022/05/21 10:56:59;;;;;;;6.65;1.88;;;;;;;;;;5096909;28;20227;-19
2022/05/21 10:59:29;;;;;;;5.32;1.88;;;;;;;;;;5092033;28;21010;-19
2022/05/21 11:02:02;;;;;;;6.60;1.85;;;;;;;;;;5096961;28;20229;-19
2022/05/21 11:04:37;;;;;;;5.97;1.90;;;;;;;;;;5095828;28;20231;-19
2022/05/21 11:07:09;;;;;;;8.43;2.00;;;;;;;;;;5097928;28;20663;-19
2022/05/21 11:09:39;;;;;;;7.68;1.58;;;;;;;;;;5092829;28;20223;-19
2022/05/21 11:12:08;;;;;;;5.18;1.90;;;;;;;;;;5095061;28;20237;-19
2022/05/21 11:14:38;;;;;;;7.20;2.22;;;;;;;;;;5098310;28;20231;-19
2022/05/21 11:17:15;;;;;;;5.72;1.55;;;;;;;;;;5098073;28;21067;-19
2022/05/21 11:19:43;;;;;;;5.97;1.80;;;;;;;;;;5094336;28;20247;-19
2022/05/21 11:22:13;;;;;;;7.63;1.67;;;;;;;;;;5097761;28;20279;-20
2022/05/21 11:24:42;;;;;;;6.65;1.60;;;;;;;;;;5094935;28;21069;-19
2022/05/21 11:27:10;;;;;;;5.65;1.70;;;;;;;;;;5090841;28;20217;-20
2022/05/21 11:29:38;;;;;;;6.90;1.70;;;;;;;;;;5098732;28;20966;-20
2022/05/21 11:37:45;;;;;;;7.30;1.75;;;;;;;;;;5046969;28;20241;-18
2022/05/21 11:40:27;;;;;;;4.13;1.45;;;;;;;;;;5094302;28;20960;-19
2022/05/21 11:42:54;;;;;;;6.22;1.25;;;;;;;;;;5095017;28;20282;-19
2022/05/21 11:45:22;;;;;;;7.53;1.63;;;;;;;;;;5093062;28;20703;-19
2022/05/21 11:47:54;;;;;;;4.43;1.23;;;;;;;;;;5098343;28;21015;-20
2022/05/21 11:50:24;;;;;;;6.43;1.60;;;;;;;;;;5099039;28;20221;-19
2022/05/21 11:53:12;;;;;;;3.50;1.30;;;;;;;;;;5103020;27;20235;-19
2022/05/21 11:55:59;;;;;;;4.47;1.42;;;;;;;;;;5098145;28;20258;-20
2022/05/21 11:58:28;;;;;;;4.88;1.23;;;;;;;;;;5100362;28;21325;-20
2022/05/21 12:00:55;;;;;;;4.22;1.42;;;;;;;;;;5095657;28;20236;-19
2022/05/21 12:03:23;;;;;;;5.47;1.80;;;;;;;;;;5097911;28;20228;-19
2022/05/21 12:06:18;;;;;;;11.65;2.40;;;;;;;;;;5099991;28;20244;-18
2022/05/21 12:08:48;;;;;;;4.70;1.65;;;;;;;;;;5098498;28;20228;-19
2022/05/21 12:11:36;;;;;;;6.82;1.58;;;;;;;;;;5101432;28;20228;-19
2022/05/21 12:14:04;;;;;;;5.13;1.58;;;;;;;;;;5104412;28;20232;-19
2022/05/21 12:16:42;;;;;;;7.45;1.50;;;;;;;;;;5099945;28;20229;-19
2022/05/21 12:19:09;;;;;;;5.32;1.50;;;;;;;;;;5093496;28;20243;-19
2022/05/21 12:21:58;;;;;;;9.57;1.90;;;;;;;;;;5100175;28;20246;-19
2022/05/21 12:24:36;;;;;;;5.40;1.30;;;;;;;;;;5093174;28;20244;-19
2022/05/21 12:27:14;;;;;;;9.45;1.77;;;;;;;;;;5096494;28;20322;-19
2022/05/21 12:29:42;;;;;;;5.70;1.50;;;;;;;;;;5097609;28;20223;-19
2022/05/21 12:32:12;;;;;;;6.03;1.45;;;;;;;;;;5093094;28;20232;-19
2022/05/21 12:34:58;;;;;;;5.53;1.45;;;;;;;;;;5097067;28;21082;-19
2022/05/21 12:37:27;;;;;;;6.68;1.70;;;;;;;;;;5098908;28;20251;-19
2022/05/21 12:39:59;;;;;;;6.60;1.67;;;;;;;;;;5098510;28;20278;-19
2022/05/21 12:42:27;;;;;;;4.70;1.48;;;;;;;;;;5098924;28;20232;-20
2022/05/21 12:44:55;;;;;;;4.68;1.30;;;;;;;;;;5100934;28;20219;-19
2022/05/21 12:47:27;;;;;;;4.20;1.38;;;;;;;;;;5097423;28;20688;-19
2022/05/21 12:49:54;;;;;;;7.43;1.60;;;;;;;;;;5098578;28;20223;-19
2022/05/21 12:52:22;;;;;;;6.03;1.90;;;;;;;;;;5097543;28;20675;-18
2022/05/21 12:54:50;;;;;;;5.10;1.67;;;;;;;;;;5103052;27;20236;-18
2022/05/21 12:57:23;;;;;;;4.80;1.30;;;;;;;;;;5096867;28;20217;-17
2022/05/21 12:59:54;;;;;;;4.47;1.50;;;;;;;;;;5096508;27;20664;-20
2022/05/21 13:02:22;;;;;;;7.20;1.60;;;;;;;;;;5101618;27;20235;-20
2022/05/21 13:04:51;;;;;;;4.28;1.17;;;;;;;;;;5101198;28;20251;-20
2022/05/21 13:07:19;;;;;;;5.50;1.55;;;;;;;;;;5100950;28;20221;-19
2022/05/21 13:09:50;;;;;;;6.22;1.58;;;;;;;;;;5100021;28;20235;-18
2022/05/21 13:12:19;;;;;;;8.00;1.73;;;;;;;;;;5100670;28;20538;-20
2022/05/21 13:14:46;;;;;;;5.95;1.70;;;;;;;;;;5096963;28;21040;-19
2022/05/21 13:17:17;;;;;;;6.85;1.67;;;;;;;;;;5100386;28;20239;-19
2022/05/21 13:19:54;;;;;;;4.25;1.42;;;;;;;;;;5100607;28;20232;-18
2022/05/21 13:22:25;;;;;;;3.38;1.35;;;;;;;;;;5096191;28;20251;-17
2022/05/21 13:24:54;;;;;;;4.95;1.45;;;;;;;;;;5098139;28;20235;-18
2022/05/21 13:27:23;;;;;;;3.90;1.17;;;;;;;;;;5100908;28;20767;-18
2022/05/21 13:29:50;;;;;;;4.82;1.25;;;;;;;;;;5099993;28;20227;-17
2022/05/21 13:32:21;;;;;;;4.95;1.27;;;;;;;;;;5094082;28;20588;-17
2022/05/21 13:34:48;;;;;;;4.82;1.50;;;;;;;;;;5095818;28;20236;-18
2022/05/21 13:37:15;;;;;;;4.60;1.27;;;;;;;;;;5096472;28;20228;-18
2022/05/21 13:39:43;;;;;;;5.18;1.40;;;;;;;;;;5099262;28;20233;-20
2022/05/21 13:42:11;;;;;;;6.30;1.48;;;;;;;;;;5094427;28;20240;-20
2022/05/21 13:44:40;;;;;;;5.10;1.20;;;;;;;;;;5095720;28;20223;-20
2022/05/21 13:47:07;;;;;;;4.10;1.20;;;;;;;;;;5091530;28;20645;-20
2022/05/21 13:49:36;;;;;;;4.32;1.25;;;;;;;;;;5100279;28;20734;-19
2022/05/21 13:52:03;;;;;;;4.18;1.33;;;;;;;;;;5098801;28;20268;-18
2022/05/21 13:54:31;;;;;;;3.28;1.10;;;;;;;;;;5095837;28;20237;-20
2022/05/21 13:57:02;;;;;;;5.68;1.23;;;;;;;;;;5097864;28;20224;-20
2022/05/21 13:59:31;;;;;;;3.45;1.10;;;;;;;;;;5096674;28;20224;-20
2022/05/21 14:02:15;;;;;;;3.55;1.25;;;;;;;;;;5098553;28;20236;-19
2022/05/21 14:04:42;;;;;;;5.28;1.23;;;;;;;;;;5103338;28;20977;-20
2022/05/21 14:07:17;;;;;;;5.97;1.40;;;;;;;;;;5090798;28;20232;-19
2022/05/21 14:09:45;;;;;;;3.13;1.00;;;;;;;;;;5088785;28;20239;-18
2022/05/21 14:12:17;;;;;;;3.33;1.20;;;;;;;;;;5097738;28;20220;-19
2022/05/21 14:14:45;;;;;;;4.43;1.23;;;;;;;;;;5095203;28;20228;-19
2022/05/21 14:17:20;;;;;;;6.53;1.58;;;;;;;;;;5094406;28;20231;-19
2022/05/21 14:20:12;;;;;;;7.78;1.70;;;;;;;;;;5097735;28;20240;-19
2022/05/21 14:22:39;;;;;;;5.28;1.30;;;;;;;;;;5091376;28;20247;-19
2022/05/21 14:25:17;;;;;;;6.75;1.30;;;;;;;;;;5095370;28;20236;-19
2022/05/21 14:27:55;;;;;;;6.57;1.42;;;;;;;;;;5088472;28;20224;-19
2022/05/21 14:30:28;;;;;;;8.85;2.33;;;;;;;;;;5098345;28;20711;-19
2022/05/21 14:32:57;;;;;;;4.55;1.40;;;;;;;;;;5096522;28;20236;-19
2022/05/21 14:35:26;;;;;;;4.38;1.45;;;;;;;;;;5099276;28;20238;-19
2022/05/21 14:37:53;;;;;;;4.50;1.40;;;;;;;;;;5096033;28;20717;-19
2022/05/21 14:40:21;;;;;;;5.88;1.63;;;;;;;;;;5097318;28;20601;-20
2022/05/21 14:42:48;;;;;;;4.85;1.75;;;;;;;;;;5095698;28;20221;-19
2022/05/21 14:45:17;;;;;;;4.18;1.30;;;;;;;;;;5097026;28;20256;-17
2022/05/21 14:47:52;;;;;;;5.55;1.52;;;;;;;;;;5102511;28;20227;-20
2022/05/21 14:53:07;;;;;;;4.78;1.95;;;;;;;;;;5098789;28;20714;-18
2022/05/21 14:55:36;;;;;;;6.47;1.52;;;;;;;;;;5095539;28;20224;-18
2022/05/21 14:58:03;;;;;;;4.45;1.50;;;;;;;;;;5097305;28;20224;-17
2022/05/21 15:00:30;;;;;;;6.55;1.85;;;;;;;;;;5096075;28;20272;-17
2022/05/21 15:02:59;;;;;;;4.43;1.45;;;;;;;;;;5096357;28;20227;-20
2022/05/21 15:05:29;;;;;;;8.65;1.80;;;;;;;;;;5098797;28;20228;-19
2022/05/21 15:07:57;;;;;;;3.58;1.30;;;;;;;;;;5098942;28;20231;-19
2022/05/21 15:10:25;;;;;;;5.38;1.90;;;;;;;;;;5093300;28;20236;-19
2022/05/21 15:12:52;;;;;;;4.80;1.98;;;;;;;;;;5094873;28;20228;-20
2022/05/21 15:15:24;;;;;;;4.97;1.35;;;;;;;;;;5093248;28;21284;-19
2022/05/21 15:17:51;;;;;;;4.03;1.60;;;;;;;;;;5096369;28;20217;-20
2022/05/21 15:20:19;;;;;;;4.78;1.55;;;;;;;;;;5093810;28;20232;-20
2022/05/21 15:22:48;;;;;;;4.55;1.60;;;;;;;;;;5092218;28;20255;-19
2022/05/21 15:25:17;;;;;;;5.70;1.80;;;;;;;;;;5100938;28;20722;-19
2022/05/21 15:27:45;;;;;;;5.68;1.88;;;;;;;;;;5102218;28;20275;-19